Time;durP1;ratioP1;P1;durP2;ratioP2;P2;SDS_P1;SDS_P2;PMS_P1;PMS_P2;Temp;Humidity;BMP_temperature;BMP_pressure;BME280_temperature;BME280_humidity;BME280_pressure;Samples;Min_cycle;Max_cycle;Signal;HPM_P1;HPM_P2
2022/06/27 00:02:14;;;;;;;4.47;2.20;;;;;;;22.92;75.38;99095.03;6097896;23;20180;-92
2022/06/27 00:04:40;;;;;;;4.07;2.40;;;;;;;22.82;75.94;99095.16;6073535;23;20167;-91
2022/06/27 00:07:05;;;;;;;5.30;3.10;;;;;;;22.81;75.97;99088.13;6073428;23;20232;-92
2022/06/27 00:09:31;;;;;;;4.40;2.53;;;;;;;22.83;75.80;99096.81;6098285;23;20576;-92
2022/06/27 00:11:59;;;;;;;4.63;2.07;;;;;;;22.85;75.04;99096.66;6097847;23;20235;-92
2022/06/27 00:14:25;;;;;;;5.17;2.70;;;;;;;22.88;75.39;99093.66;6072423;23;20567;-92
2022/06/27 00:16:51;;;;;;;4.63;2.27;;;;;;;22.80;75.49;99091.78;6073387;23;20180;-92
2022/06/27 00:19:17;;;;;;;3.83;2.20;;;;;;;22.84;74.49;99086.97;6072509;23;20168;-92
2022/06/27 00:21:43;;;;;;;3.87;2.30;;;;;;;22.93;73.58;99092.19;6072582;23;20149;-91
2022/06/27 00:24:08;;;;;;;4.23;2.53;;;;;;;22.93;73.58;99092.19;6073643;23;20156;-91
2022/06/27 00:26:33;;;;;;;3.63;1.90;;;;;;;22.88;73.82;99093.66;6097401;23;20512;-92
2022/06/27 00:28:59;;;;;;;3.53;2.03;;;;;;;22.84;73.55;99093.16;6097792;23;20214;-91
2022/06/27 00:31:24;;;;;;;4.63;1.77;;;;;;;22.83;73.87;99085.28;6097484;23;20496;-92
2022/06/27 00:33:50;;;;;;;4.43;2.20;;;;;;;22.87;73.78;99086.66;6073034;23;20240;-92
2022/06/27 00:36:15;;;;;;;5.13;2.40;;;;;;;22.90;73.39;99087.19;6097981;23;20154;-91
2022/06/27 00:38:41;;;;;;;4.57;2.33;;;;;;;22.87;73.98;99082.13;6098083;23;20169;-91
2022/06/27 00:41:06;;;;;;;8.03;2.57;;;;;;;22.86;73.90;99084.94;6072666;23;20164;-91
2022/06/27 00:43:32;;;;;;;6.17;2.33;;;;;;;22.92;73.76;99093.19;6072831;23;20157;-90
2022/06/27 00:45:57;;;;;;;4.53;2.40;;;;;;;22.90;73.73;99092.53;6072325;23;20252;-92
2022/06/27 00:48:23;;;;;;;7.53;2.53;;;;;;;22.91;73.86;99091.50;6097027;23;20183;-92
2022/06/27 00:50:48;;;;;;;4.47;2.20;;;;;;;22.92;73.48;99090.53;6072046;23;20202;-92
2022/06/27 00:53:15;;;;;;;3.43;1.97;;;;;;;22.86;73.33;99092.97;6098052;23;20235;-91
2022/06/27 00:55:41;;;;;;;5.33;2.97;;;;;;;22.87;73.14;99092.84;6097245;23;20490;-91
2022/06/27 00:58:06;;;;;;;5.93;2.80;;;;;;;22.92;73.00;99085.16;6097696;23;20581;-91
2022/06/27 01:00:32;;;;;;;6.03;2.23;;;;;;;22.85;73.45;99084.13;6072867;23;20553;-91
2022/06/27 01:02:57;;;;;;;3.53;2.13;;;;;;;22.81;73.57;99089.94;6072288;23;20561;-92
2022/06/27 01:05:23;;;;;;;6.50;2.50;;;;;;;22.75;74.15;99087.91;6072136;23;20644;-92
2022/06/27 01:07:48;;;;;;;4.90;2.30;;;;;;;22.74;74.00;99092.44;6097747;23;20184;-91
2022/06/27 01:10:15;;;;;;;5.20;2.57;;;;;;;22.83;73.73;99091.47;6097293;23;20463;-91
2022/06/27 01:12:41;;;;;;;5.53;2.20;;;;;;;22.84;73.54;99097.66;6072101;23;20229;-92
2022/06/27 01:15:11;;;;;;;9.30;2.90;;;;;;;22.85;73.06;99099.34;6072090;23;20477;-92
2022/06/27 01:17:37;;;;;;;5.93;3.00;;;;;;;22.82;73.73;99100.50;6072089;23;20166;-92
2022/06/27 01:20:04;;;;;;;7.63;2.50;;;;;;;22.81;73.44;99096.13;6072094;23;20152;-91
2022/06/27 01:22:30;;;;;;;4.60;2.37;;;;;;;22.78;73.72;99098.28;6097413;23;20162;-91
2022/06/27 01:24:56;;;;;;;5.10;2.67;;;;;;;22.71;73.73;99089.22;6072264;23;20243;-92
2022/06/27 01:27:22;;;;;;;7.27;3.17;;;;;;;22.67;74.27;99093.22;6097069;23;20235;-91
2022/06/27 01:29:47;;;;;;;5.67;2.70;;;;;;;22.67;74.08;99085.19;6072795;23;20585;-91
2022/06/27 01:32:12;;;;;;;8.30;2.57;;;;;;;22.51;75.10;99084.06;6072078;23;20164;-91
2022/06/27 01:34:38;;;;;;;5.77;2.80;;;;;;;22.51;74.84;99086.72;6097127;23;20632;-92
2022/06/27 01:37:04;;;;;;;4.07;2.33;;;;;;;22.55;74.88;99092.59;6072799;23;20211;-91
2022/06/27 01:39:30;;;;;;;5.33;2.93;;;;;;;22.48;74.97;99086.22;6097307;23;20562;-91
2022/06/27 01:41:58;;;;;;;4.37;2.40;;;;;;;22.51;75.12;99085.91;6072052;23;20187;-91
2022/06/27 01:44:26;;;;;;;4.40;2.43;;;;;;;22.56;74.78;99088.94;6099875;23;20156;-91
2022/06/27 01:46:54;;;;;;;5.20;2.53;;;;;;;22.47;75.24;99090.72;6099063;23;20486;-91
2022/06/27 01:49:20;;;;;;;5.67;2.63;;;;;;;22.40;75.67;99091.50;6073862;23;20156;-91
2022/06/27 01:51:48;;;;;;;6.83;2.40;;;;;;;22.25;76.70;99098.41;6098799;23;20163;-91
2022/06/27 01:54:15;;;;;;;3.93;1.97;;;;;;;22.29;76.71;99087.25;6098768;23;20215;-91
2022/06/27 01:56:42;;;;;;;4.77;1.87;;;;;;;22.35;76.43;99091.13;6099073;23;20568;-91
2022/06/27 01:59:09;;;;;;;4.43;2.07;;;;;;;22.42;75.89;99084.16;6098723;23;20231;-91
2022/06/27 02:01:35;;;;;;;3.30;1.87;;;;;;;22.45;75.84;99094.53;6099264;23;20156;-91
2022/06/27 02:04:01;;;;;;;3.57;1.80;;;;;;;22.38;76.36;99091.66;6098688;23;20153;-91
2022/06/27 02:06:29;;;;;;;2.77;1.67;;;;;;;22.36;76.47;99088.28;6098680;23;20600;-90
2022/06/27 02:08:56;;;;;;;6.93;1.70;;;;;;;22.37;76.24;99089.97;6098744;23;20232;-91
2022/06/27 02:11:23;;;;;;;4.03;1.90;;;;;;;22.43;75.97;99094.69;6098671;23;20148;-91
2022/06/27 02:13:49;;;;;;;2.93;1.93;;;;;;;22.47;76.13;99100.56;6098886;23;20172;-90
2022/06/27 02:16:17;;;;;;;4.00;2.10;;;;;;;22.56;75.60;99099.63;6073479;23;20236;-91
2022/06/27 02:18:43;;;;;;;5.10;1.97;;;;;;;22.64;74.80;99102.41;6098547;23;20148;-91
2022/06/27 02:21:11;;;;;;;4.23;1.90;;;;;;;22.73;74.80;99103.25;6073820;23;20477;-91
2022/06/27 02:23:38;;;;;;;3.67;1.90;;;;;;;22.68;74.20;99103.75;6073430;23;20167;-91
2022/06/27 02:26:07;;;;;;;4.20;2.47;;;;;;;22.62;74.48;99098.97;6098827;23;20189;-91
2022/06/27 02:28:32;;;;;;;3.70;1.80;;;;;;;22.63;74.87;99101.53;6098784;23;20164;-91
2022/06/27 02:30:58;;;;;;;4.43;2.27;;;;;;;22.61;75.16;99097.31;6074438;23;20251;-91
2022/06/27 02:33:32;;;;;;;4.47;1.50;;;;;;;22.56;76.03;99095.09;6073367;23;20239;-91
2022/06/27 02:35:59;;;;;;;4.53;2.00;;;;;;;22.53;76.20;99106.13;6099165;23;20137;-92
2022/06/27 02:38:25;;;;;;;5.13;1.77;;;;;;;22.40;76.90;99107.53;6073521;23;20246;-91
2022/06/27 02:40:51;;;;;;;4.53;1.90;;;;;;;22.45;77.08;99113.25;6073205;23;20577;-91
2022/06/27 02:43:18;;;;;;;4.07;2.10;;;;;;;22.45;77.14;99108.75;6073670;23;20156;-91
2022/06/27 02:45:46;;;;;;;3.83;2.27;;;;;;;22.50;76.98;99111.78;6073249;23;20152;-91
2022/06/27 02:48:12;;;;;;;4.40;2.10;;;;;;;22.52;76.87;99115.13;6073185;23;20230;-91
2022/06/27 02:50:41;;;;;;;6.70;1.87;;;;;;;22.54;77.02;99112.28;6098533;23;20160;-90
2022/06/27 02:53:10;;;;;;;4.20;2.07;;;;;;;22.63;77.24;99111.41;6098154;23;20614;-91
2022/06/27 02:55:40;;;;;;;2.80;1.20;;;;;;;22.64;77.09;99108.56;6072796;23;20153;-91
2022/06/27 02:58:11;;;;;;;2.53;1.50;;;;;;;22.75;76.70;99111.94;6073096;23;20159;-91
2022/06/27 03:00:40;;;;;;;3.70;1.67;;;;;;;22.75;76.95;99114.63;6098114;23;20184;-91
2022/06/27 03:03:07;;;;;;;8.77;1.97;;;;;;;22.80;76.18;99113.16;6072982;23;20156;-91
2022/06/27 03:05:33;;;;;;;4.20;1.83;;;;;;;22.84;75.55;99114.53;6073009;23;20223;-90
2022/06/27 03:07:58;;;;;;;5.83;2.23;;;;;;;22.74;74.93;99111.13;6097883;23;20181;-91
2022/06/27 03:10:24;;;;;;;8.20;2.57;;;;;;;22.66;74.25;99113.75;6098409;23;20149;-91
2022/06/27 03:12:50;;;;;;;3.70;2.13;;;;;;;22.69;74.33;99116.13;6097771;23;20610;-91
2022/06/27 03:15:15;;;;;;;5.63;2.33;;;;;;;22.71;74.35;99111.44;6098405;23;20137;-91
2022/06/27 03:17:41;;;;;;;6.90;2.13;;;;;;;22.76;74.12;99121.66;6072960;23;20175;-91
2022/06/27 03:20:07;;;;;;;8.77;2.70;;;;;;;22.72;74.45;99126.47;6072762;23;20152;-90
2022/06/27 03:22:33;;;;;;;6.83;2.60;;;;;;;22.76;74.25;99117.16;6098095;23;20601;-90
2022/06/27 03:24:58;;;;;;;4.73;2.37;;;;;;;22.76;74.53;99118.97;6098204;23;20153;-90
2022/06/27 03:27:23;;;;;;;4.43;2.50;;;;;;;22.72;74.60;99126.47;6097595;23;20188;-91
2022/06/27 03:29:49;;;;;;;7.77;2.67;;;;;;;22.70;74.96;99122.28;6073380;23;20636;-91
2022/06/27 03:32:14;;;;;;;6.03;2.57;;;;;;;22.66;75.19;99118.25;6072725;23;20240;-91
2022/06/27 03:34:40;;;;;;;8.20;1.87;;;;;;;22.71;74.70;99127.47;6097735;23;20148;-91
2022/06/27 03:37:07;;;;;;;3.43;1.70;;;;;;;22.66;74.97;99128.94;6097692;23;20144;-91
2022/06/27 03:39:32;;;;;;;6.77;2.63;;;;;;;22.74;75.04;99129.84;6097709;23;20466;-90
2022/06/27 03:41:58;;;;;;;4.43;2.00;;;;;;;22.72;75.11;99126.47;6097756;23;20152;-91
2022/06/27 03:44:23;;;;;;;7.43;2.20;;;;;;;22.74;74.98;99129.00;6072792;23;20171;-91
2022/06/27 03:46:49;;;;;;;10.83;2.10;;;;;;;22.77;75.20;99128.69;6097857;23;20184;-91
2022/06/27 03:51:58;;;;;;;11.30;2.27;;;;;;;22.87;74.88;99130.25;6097986;23;20171;-90
2022/06/27 03:54:24;;;;;;;5.03;2.37;;;;;;;22.92;74.31;99124.44;6097559;23;20153;-91
2022/06/27 03:56:49;;;;;;;6.47;2.03;;;;;;;22.97;74.13;99124.78;6097509;23;20149;-91
2022/06/27 03:59:15;;;;;;;8.10;2.60;;;;;;;22.95;74.57;99126.78;6072485;23;20156;-90
2022/06/27 04:01:40;;;;;;;8.30;2.00;;;;;;;22.98;75.10;99121.13;6072522;23;20239;-91
2022/06/27 04:04:06;;;;;;;8.73;2.83;;;;;;;23.01;75.34;99118.09;6097589;23;20148;-91
2022/06/27 04:06:32;;;;;;;6.53;3.33;;;;;;;23.07;75.73;99122.81;6072671;23;20184;-91
2022/06/27 04:08:58;;;;;;;5.73;2.63;;;;;;;23.14;75.87;99121.19;6072252;23;20183;-91
2022/06/27 04:11:24;;;;;;;4.40;1.70;;;;;;;23.23;75.88;99118.41;6097590;23;20175;-91
2022/06/27 04:13:49;;;;;;;4.87;2.47;;;;;;;23.29;76.30;99124.94;6097240;23;20207;-92
2022/06/27 04:16:15;;;;;;;4.67;2.70;;;;;;;23.25;77.13;99128.91;6097792;23;20171;-90
2022/06/27 04:18:40;;;;;;;4.30;2.37;;;;;;;23.35;76.75;99126.13;6072804;23;20160;-91
2022/06/27 04:21:06;;;;;;;7.40;2.20;;;;;;;23.38;75.33;99129.34;6072797;23;20180;-92
2022/06/27 04:23:32;;;;;;;5.13;2.17;;;;;;;23.35;75.38;99121.59;6097537;23;20149;-92
2022/06/27 04:25:57;;;;;;;4.53;2.13;;;;;;;23.43;75.37;99131.53;6097390;23;20149;-92
2022/06/27 04:28:23;;;;;;;3.50;2.20;;;;;;;23.31;76.00;99133.63;6072596;23;20275;-91
2022/06/27 04:30:48;;;;;;;4.23;2.47;;;;;;;23.47;75.22;99127.53;6072842;23;20163;-91
2022/06/27 04:33:14;;;;;;;4.90;2.67;;;;;;;23.47;75.82;99127.53;6072272;23;20156;-91
2022/06/27 04:35:46;;;;;;;4.47;3.13;;;;;;;23.54;75.82;99129.41;6072478;23;20223;-92
2022/06/27 04:38:12;;;;;;;5.60;3.37;;;;;;;23.54;76.71;99129.41;6073670;23;20144;-91
2022/06/27 04:40:38;;;;;;;4.63;2.90;;;;;;;23.60;76.76;99128.75;6097632;23;20148;-92
2022/06/27 04:43:04;;;;;;;8.10;3.10;;;;;;;23.54;77.54;99126.72;6097333;23;20220;-92
2022/06/27 04:45:32;;;;;;;10.20;3.20;;;;;;;23.60;77.81;99130.59;6072566;23;20565;-92
2022/06/27 04:47:58;;;;;;;5.57;3.83;;;;;;;23.60;78.30;99128.75;6073283;23;20591;-91
2022/06/27 04:50:24;;;;;;;5.97;3.80;;;;;;;23.65;78.15;99126.44;6097207;23;20171;-92
2022/06/27 04:52:51;;;;;;;7.00;3.97;;;;;;;23.66;78.51;99128.09;6097259;23;20176;-91
2022/06/27 04:55:18;;;;;;;7.77;3.93;;;;;;;23.75;78.19;99126.28;6072606;23;20242;-91
2022/06/27 04:57:45;;;;;;;7.30;3.57;;;;;;;23.69;78.48;99127.75;6072320;23;20167;-92
2022/06/27 05:00:13;;;;;;;6.73;3.60;;;;;;;23.83;77.58;99124.47;6097305;23;20159;-92
2022/06/27 05:02:39;;;;;;;9.73;4.03;;;;;;;23.90;77.57;99129.16;6073228;23;20183;-90
2022/06/27 05:05:05;;;;;;;6.33;3.73;;;;;;;23.78;77.73;99129.47;6072411;23;20239;-91
2022/06/27 05:07:31;;;;;;;6.53;3.53;;;;;;;23.87;78.12;99126.81;6072096;23;20189;-92
2022/06/27 05:09:57;;;;;;;5.20;3.40;;;;;;;23.92;77.38;99127.16;6072222;23;20167;-91
2022/06/27 05:12:27;;;;;;;6.77;3.20;;;;;;;24.00;77.49;99129.84;6095450;23;20148;-91
2022/06/27 05:14:53;;;;;;;6.13;3.23;;;;;;;24.07;77.31;99125.50;6071963;23;20219;-92
2022/06/27 05:17:19;;;;;;;4.80;2.97;;;;;;;24.17;76.97;99127.03;6072293;23;20180;-92
2022/06/27 05:19:45;;;;;;;4.93;3.27;;;;;;;24.18;77.06;99127.88;6073918;23;20156;-92
2022/06/27 05:22:10;;;;;;;7.83;3.33;;;;;;;24.34;77.63;99128.69;6098956;23;20163;-91
2022/06/27 05:24:37;;;;;;;5.97;3.60;;;;;;;24.71;76.67;99130.03;6074285;23;20156;-92
2022/06/27 05:27:02;;;;;;;5.87;3.00;;;;;;;24.85;75.36;99132.88;6098928;23;20248;-92
2022/06/27 05:29:28;;;;;;;4.17;2.90;;;;;;;25.15;74.53;99143.84;6099049;23;20160;-92
2022/06/27 05:31:54;;;;;;;5.57;2.77;;;;;;;25.51;73.61;99134.34;6074080;23;20160;-91
2022/06/27 05:34:20;;;;;;;5.37;3.00;;;;;;;25.47;71.67;99139.22;6099002;23;20149;-91
2022/06/27 05:36:46;;;;;;;4.60;2.93;;;;;;;25.49;70.49;99137.22;6098792;23;20144;-92
2022/06/27 05:39:11;;;;;;;4.37;2.63;;;;;;;25.54;70.74;99136.69;6073989;23;20157;-91
2022/06/27 05:41:37;;;;;;;4.70;2.67;;;;;;;25.65;70.56;99147.03;6072917;23;20153;-90
2022/06/27 05:44:03;;;;;;;7.27;3.57;;;;;;;25.59;68.56;99150.41;6073569;23;20156;-90
2022/06/27 05:46:29;;;;;;;5.37;3.00;;;;;;;25.74;68.71;99155.84;6099083;23;20183;-90
2022/06/27 05:48:55;;;;;;;5.53;2.93;;;;;;;25.71;68.96;99157.03;6074765;23;20235;-91
2022/06/27 05:51:22;;;;;;;9.03;2.97;;;;;;;25.78;68.66;99155.34;6074051;23;20525;-91
2022/06/27 05:53:48;;;;;;;6.93;3.10;;;;;;;25.93;68.56;99153.56;6097305;23;20152;-91
2022/06/27 05:56:14;;;;;;;5.10;3.40;;;;;;;26.00;67.77;99162.59;6073471;23;20188;-91
2022/06/27 05:58:41;;;;;;;6.17;3.20;;;;;;;26.11;67.90;99153.28;6073898;23;20168;-91
2022/06/27 06:01:08;;;;;;;6.30;3.13;;;;;;;26.41;67.08;99165.88;6073756;23;20597;-91
2022/06/27 06:03:34;;;;;;;6.97;3.10;;;;;;;26.47;65.24;99159.75;6098760;23;20220;-92
2022/06/27 06:06:00;;;;;;;5.63;3.45;;;;;;;26.47;64.73;99162.44;6098692;23;20156;-92
2022/06/27 06:08:26;;;;;;;10.60;3.50;;;;;;;26.63;64.86;99164.97;6073349;23;20180;-91
2022/06/27 06:10:52;;;;;;;8.30;4.20;;;;;;;27.01;65.45;99162.31;6073575;23;20165;-91
2022/06/27 06:13:18;;;;;;;5.22;3.50;;;;;;;27.11;64.31;99161.00;6098733;23;20256;-91
2022/06/27 06:15:45;;;;;;;6.18;3.90;;;;;;;27.09;65.53;99160.38;6073472;23;20153;-91
2022/06/27 06:18:11;;;;;;;7.28;4.63;;;;;;;27.03;63.32;99165.63;6073684;23;20498;-91
2022/06/27 06:20:37;;;;;;;6.75;4.25;;;;;;;27.02;63.48;99164.78;6073892;23;20208;-93
2022/06/27 06:23:03;;;;;;;9.32;4.82;;;;;;;27.09;64.15;99160.38;6098615;23;20152;-92
2022/06/27 06:25:29;;;;;;;10.18;5.72;;;;;;;27.07;65.02;99159.69;6098396;23;20235;-93
2022/06/27 06:28:02;;;;;;;7.88;5.20;;;;;;;27.37;64.81;99163.22;6098116;23;20556;-90
2022/06/27 06:30:29;;;;;;;6.88;4.55;;;;;;;27.68;62.40;99163.03;6097756;23;20140;-91
2022/06/27 06:32:56;;;;;;;6.22;3.88;;;;;;;27.79;59.91;99173.31;6098627;23;20180;-91
2022/06/27 06:35:22;;;;;;;7.22;4.18;;;;;;;28.02;59.47;99157.84;6073461;23;20161;-92
2022/06/27 06:37:48;;;;;;;6.50;4.05;;;;;;;28.27;60.30;99166.41;6073370;23;20244;-92
2022/06/27 06:40:16;;;;;;;9.57;5.07;;;;;;;28.54;59.64;99158.38;6098146;23;20247;-92
2022/06/27 06:42:42;;;;;;;6.35;4.00;;;;;;;28.79;56.92;99168.78;6098184;23;20210;-92
2022/06/27 06:45:08;;;;;;;6.18;3.42;;;;;;;28.89;55.16;99174.66;6098212;23;20676;-92
2022/06/27 06:47:41;;;;;;;6.93;3.47;;;;;;;29.04;54.64;99178.09;6098015;23;20565;-93
2022/06/27 06:50:07;;;;;;;4.65;2.85;;;;;;;29.06;55.13;99174.16;6073605;23;20554;-93
2022/06/27 06:52:34;;;;;;;5.45;2.95;;;;;;;29.18;54.15;99180.69;6073217;23;20156;-92
2022/06/27 06:54:59;;;;;;;6.32;3.30;;;;;;;29.39;54.13;99174.41;6073150;23;20223;-93
2022/06/27 06:57:25;;;;;;;6.43;3.78;;;;;;;29.56;53.80;99174.91;6073174;23;20156;-91
2022/06/27 06:59:51;;;;;;;5.93;4.32;;;;;;;29.61;55.61;99178.66;6073971;23;20156;-92
2022/06/27 07:02:16;;;;;;;6.50;4.00;;;;;;;29.85;54.48;99165.69;6098135;23;20633;-95
2022/06/27 07:04:42;;;;;;;5.47;3.67;;;;;;;30.08;53.34;99166.19;6097813;23;20641;-94
2022/06/27 07:07:07;;;;;;;6.82;4.35;;;;;;;30.29;53.40;99166.00;6073189;23;20184;-92
2022/06/27 07:09:33;;;;;;;6.70;3.72;;;;;;;30.27;50.17;99170.78;6073147;23;20231;-93
2022/06/27 07:12:00;;;;;;;5.93;3.47;;;;;;;30.29;49.73;99166.00;6073196;23;20536;-94
2022/06/27 07:14:27;;;;;;;5.30;3.92;;;;;;;30.33;49.44;99169.97;6073002;23;20585;-93
2022/06/27 07:16:54;;;;;;;5.80;3.80;;;;;;;30.14;50.36;99176.16;6072961;23;20153;-92
2022/06/27 07:19:19;;;;;;;6.15;3.78;;;;;;;30.04;52.01;99162.19;6072962;23;20157;-94
2022/06/27 07:21:45;;;;;;;5.78;3.78;;;;;;;30.23;52.73;99164.97;6072999;23;20573;-95
2022/06/27 07:24:10;;;;;;;9.05;4.07;;;;;;;30.07;51.97;99161.81;6073174;23;20153;-94
2022/06/27 07:26:36;;;;;;;10.10;3.83;;;;;;;30.28;51.03;99169.75;6097716;23;20171;-93
2022/06/27 07:29:04;;;;;;;5.93;3.33;;;;;;;30.39;47.68;99182.72;6072936;23;20225;-92
2022/06/27 07:31:31;;;;;;;10.75;3.33;;;;;;;30.52;49.33;99165.66;6098234;23;20176;-94
2022/06/27 07:33:56;;;;;;;5.00;2.72;;;;;;;30.73;49.08;99178.97;6072264;23;20156;-93
2022/06/27 07:36:25;;;;;;;6.55;3.30;;;;;;;30.97;49.64;99172.97;6097676;23;20149;-94
2022/06/27 07:38:52;;;;;;;5.88;2.33;;;;;;;30.99;47.44;99174.41;6072695;23;20203;-94
2022/06/27 07:41:22;;;;;;;4.45;2.42;;;;;;;31.15;46.64;99175.84;6072555;23;20156;-93
2022/06/27 07:43:49;;;;;;;4.90;3.05;;;;;;;31.29;46.52;99173.94;6073398;23;20171;-94
2022/06/27 07:46:17;;;;;;;3.67;2.40;;;;;;;31.51;48.07;99170.78;6097387;23;20156;-94
2022/06/27 07:48:44;;;;;;;4.22;2.17;;;;;;;31.68;45.12;99168.44;6096800;23;20185;-93
2022/06/27 07:51:10;;;;;;;5.97;2.45;;;;;;;31.79;43.30;99162.31;6072226;23;20231;-93
2022/06/27 07:53:37;;;;;;;3.33;2.40;;;;;;;31.89;43.11;99168.09;6072207;23;20675;-92
2022/06/27 07:56:06;;;;;;;4.55;1.48;;;;;;;31.71;40.39;99164.47;6071989;23;20176;-94
2022/06/27 07:58:33;;;;;;;4.07;1.70;;;;;;;31.96;41.95;99160.78;6072035;23;20168;-93
2022/06/27 08:01:02;;;;;;;4.25;1.95;;;;;;;32.09;41.13;99162.59;6072131;23;20192;-95
2022/06/27 08:03:36;;;;;;;6.97;2.42;;;;;;;32.35;41.72;99161.59;6072656;23;20533;-94
2022/06/27 08:06:08;;;;;;;3.47;1.85;;;;;;;32.21;40.14;99164.41;6072502;23;20162;-94
2022/06/27 08:08:37;;;;;;;4.07;1.70;;;;;;;32.36;39.12;99169.53;6072265;23;20234;-94
2022/06/27 08:11:03;;;;;;;5.95;1.40;;;;;;;32.49;40.80;99155.88;6072477;23;20167;-94
2022/06/27 08:13:31;;;;;;;4.38;1.52;;;;;;;32.57;39.47;99166.50;6072377;23;20176;-94
2022/06/27 08:15:57;;;;;;;3.70;1.70;;;;;;;32.73;39.57;99167.81;6072479;23;20156;-92
2022/06/27 08:18:24;;;;;;;2.85;1.65;;;;;;;32.76;39.93;99161.94;6097301;23;20181;-93
2022/06/27 08:20:51;;;;;;;2.50;1.38;;;;;;;32.95;37.77;99160.09;6072330;23;20179;-92
2022/06/27 08:23:19;;;;;;;2.15;1.38;;;;;;;32.96;37.70;99170.75;6072999;23;20167;-94
2022/06/27 08:25:47;;;;;;;5.63;1.85;;;;;;;32.99;38.32;99155.88;6072457;23;20227;-93
2022/06/27 08:28:15;;;;;;;2.85;1.45;;;;;;;32.85;39.39;99166.03;6072080;23;20180;-93
2022/06/27 08:30:42;;;;;;;2.58;1.52;;;;;;;32.88;37.46;99162.88;6072509;23;20157;-93
2022/06/27 08:33:12;;;;;;;3.22;1.38;;;;;;;32.94;38.88;99164.69;6072379;23;20152;-93
2022/06/27 08:35:39;;;;;;;3.85;1.67;;;;;;;32.97;39.35;99160.72;6097669;23;20179;-92
2022/06/27 08:38:05;;;;;;;6.32;2.28;;;;;;;32.88;38.53;99164.75;6072325;23;20180;-92
2022/06/27 08:40:32;;;;;;;3.47;1.42;;;;;;;33.01;39.33;99154.59;6072332;23;20156;-94
2022/06/27 08:43:00;;;;;;;3.13;1.52;;;;;;;32.93;36.88;99157.59;6072264;23;20596;-93
2022/06/27 08:45:28;;;;;;;2.95;1.50;;;;;;;33.09;37.05;99161.66;6097432;23;20166;-93
2022/06/27 08:47:58;;;;;;;2.92;1.60;;;;;;;33.22;38.27;99151.50;6097104;23;20280;-93
2022/06/27 08:50:26;;;;;;;3.70;1.42;;;;;;;33.10;38.34;99164.13;6097212;23;20160;-92
2022/06/27 08:52:58;;;;;;;3.13;1.55;;;;;;;33.04;37.92;99151.47;6097143;23;20184;-93
2022/06/27 08:55:25;;;;;;;2.90;1.45;;;;;;;32.98;39.96;99159.66;6072439;23;20144;-94
2022/06/27 08:57:52;;;;;;;3.35;1.40;;;;;;;32.99;36.98;99151.28;6072157;23;20171;-93
2022/06/27 09:00:22;;;;;;;4.75;1.70;;;;;;;32.77;37.45;99155.44;6096442;23;20176;-94
2022/06/27 09:02:49;;;;;;;4.47;1.20;;;;;;;32.75;37.06;99154.84;6097437;23;20148;-94
2022/06/27 09:05:30;;;;;;;5.03;1.80;;;;;;;32.91;37.15;99145.31;6071814;23;20219;-94
2022/06/27 09:08:03;;;;;;;4.72;1.55;;;;;;;32.93;37.65;99152.19;6071958;23;20232;-92
2022/06/27 09:10:46;;;;;;;2.67;1.50;;;;;;;33.06;36.30;99143.94;6071726;23;20160;-94
2022/06/27 09:13:16;;;;;;;1.88;1.02;;;;;;;33.26;36.45;99147.25;6071177;23;20236;-93
2022/06/27 09:15:56;;;;;;;2.03;0.95;;;;;;;33.56;34.37;99150.09;6095987;23;20224;-93
2022/06/27 09:18:30;;;;;;;3.83;1.33;;;;;;;33.61;35.07;99143.97;6072082;23;20227;-93
2022/06/27 09:21:11;;;;;;;2.70;1.35;;;;;;;33.75;34.59;99134.59;6072287;23;20160;-94
2022/06/27 09:23:49;;;;;;;3.13;1.23;;;;;;;33.76;34.62;99141.66;6072299;23;20144;-95
2022/06/27 09:26:25;;;;;;;4.63;1.48;;;;;;;34.00;34.59;99127.09;6071956;23;20159;-94
2022/06/27 09:29:09;;;;;;;1.98;1.10;;;;;;;34.10;33.85;99132.84;6097593;23;20148;-95
2022/06/27 09:31:43;;;;;;;2.05;0.93;;;;;;;34.11;34.57;99129.06;6072731;23;20223;-94
2022/06/27 09:34:23;;;;;;;2.53;1.10;;;;;;;34.23;34.76;99124.47;6072166;23;20573;-94
2022/06/27 09:37:01;;;;;;;2.33;0.98;;;;;;;34.36;34.23;99128.88;6072074;23;20175;-93
2022/06/27 09:39:39;;;;;;;2.25;1.23;;;;;;;34.54;34.96;99117.91;6072214;23;20160;-94
2022/06/27 09:42:14;;;;;;;2.42;1.35;;;;;;;34.87;33.52;99118.22;6097438;23;20136;-93
2022/06/27 09:44:43;;;;;;;2.10;1.10;;;;;;;35.10;32.66;99115.50;6072669;23;20187;-94
2022/06/27 09:47:21;;;;;;;3.95;1.70;;;;;;;34.73;34.62;99118.66;6071991;23;20499;-94
2022/06/27 09:49:50;;;;;;;2.72;1.20;;;;;;;34.90;34.77;99120.47;6072306;23;20153;-95
2022/06/27 09:52:23;;;;;;;2.83;1.30;;;;;;;34.82;33.71;99122.72;6072276;23;20168;-93
2022/06/27 09:54:52;;;;;;;3.17;1.50;;;;;;;34.58;34.15;99119.97;6072507;23;20217;-94
2022/06/27 09:57:21;;;;;;;2.40;1.10;;;;;;;34.79;34.93;99112.28;6097119;23;20156;-94
2022/06/27 09:59:48;;;;;;;3.88;1.08;;;;;;;34.92;34.50;99110.16;6072155;23;20167;-94
2022/06/27 10:02:21;;;;;;;5.55;1.40;;;;;;;35.17;33.11;99113.47;6072104;23;20596;-94
2022/06/27 10:04:49;;;;;;;3.10;1.30;;;;;;;35.24;33.56;99107.91;6099155;23;20141;-94
2022/06/27 10:07:17;;;;;;;3.50;1.67;;;;;;;35.18;34.02;99111.56;6073669;23;20188;-92
2022/06/27 10:09:43;;;;;;;2.95;1.33;;;;;;;34.80;32.73;99112.03;6099263;23;20173;-94
2022/06/27 10:12:28;;;;;;;3.28;1.10;;;;;;;34.72;34.32;99125.19;6098901;23;20152;-94
2022/06/27 10:15:12;;;;;;;3.30;1.40;;;;;;;34.37;33.93;99117.78;6073770;23;20499;-93
2022/06/27 10:17:52;;;;;;;2.47;1.33;;;;;;;34.24;34.51;99111.72;6073518;23;20292;-93
2022/06/27 10:20:38;;;;;;;2.58;1.00;;;;;;;34.04;35.76;99120.16;6099151;23;20132;-93
2022/06/27 10:23:17;;;;;;;3.28;1.63;;;;;;;33.71;36.05;99114.31;6074665;23;20288;-94
2022/06/27 10:25:45;;;;;;;2.55;1.48;;;;;;;33.53;36.08;99119.75;6098933;23;20476;-93
2022/06/27 10:28:14;;;;;;;3.38;1.60;;;;;;;33.47;37.18;99115.22;6073499;23;20184;-94
2022/06/27 10:30:52;;;;;;;2.83;1.38;;;;;;;33.56;37.72;99105.75;6073579;23;20264;-94
2022/06/27 10:33:26;;;;;;;2.90;1.33;;;;;;;33.31;35.98;99095.78;6099345;23;20140;-94
2022/06/27 10:38:28;;;;;;;2.70;1.25;;;;;;;33.68;36.18;99085.72;6098660;23;20183;-94
2022/06/27 10:40:55;;;;;;;3.40;1.52;;;;;;;33.94;35.08;99089.94;6073439;23;20216;-93
2022/06/27 10:43:56;;;;;;;1.90;1.15;;;;;;;34.23;33.56;99083.66;6098663;23;20149;-93
2022/06/27 10:46:22;;;;;;;2.75;1.40;;;;;;;34.45;33.47;99082.06;6092301;23;20160;-94
2022/06/27 10:48:52;;;;;;;1.65;1.13;;;;;;;34.41;34.20;99078.13;6073437;23;20192;-93
2022/06/27 10:51:29;;;;;;;2.65;1.38;;;;;;;34.43;32.92;99081.47;6098086;23;20493;-93
2022/06/27 10:54:04;;;;;;;2.20;1.35;;;;;;;34.33;34.09;99077.66;6072335;23;20628;-94
2022/06/27 10:56:29;;;;;;;2.15;1.10;;;;;;;34.34;33.80;99068.41;6072231;23;20167;-93
2022/06/27 10:58:56;;;;;;;4.95;1.60;;;;;;;34.52;34.65;99073.75;6097174;23;20148;-93
2022/06/27 11:01:21;;;;;;;6.50;1.27;;;;;;;34.61;35.43;99072.38;6097094;23;20153;-93
2022/06/27 11:03:49;;;;;;;1.65;0.82;;;;;;;34.80;33.46;99070.38;6097154;23;20158;-92
2022/06/27 11:06:15;;;;;;;1.88;1.00;;;;;;;35.14;32.76;99072.25;6097329;23;20236;-93
2022/06/27 11:08:43;;;;;;;3.33;1.23;;;;;;;35.33;32.87;99065.53;6098087;23;20208;-94
2022/06/27 11:11:16;;;;;;;2.78;1.40;;;;;;;35.62;33.58;99056.34;6073160;23;20160;-94
2022/06/27 11:13:44;;;;;;;2.67;1.00;;;;;;;35.72;32.37;99056.53;6072737;23;20600;-94
2022/06/27 11:16:20;;;;;;;4.63;1.45;;;;;;;35.07;32.72;99060.63;6097924;23;20235;-93
2022/06/27 11:18:48;;;;;;;2.30;1.13;;;;;;;34.85;33.22;99060.41;6073425;23;20155;-94
2022/06/27 11:21:16;;;;;;;2.65;1.20;;;;;;;34.84;33.17;99055.19;6073252;23;20160;-94
2022/06/27 11:23:52;;;;;;;2.35;1.10;;;;;;;34.61;33.38;99052.50;6073050;23;20160;-95
2022/06/27 11:26:19;;;;;;;2.15;0.95;;;;;;;34.50;33.70;99051.38;6073058;23;20196;-94
2022/06/27 11:34:13;;;;;;;2.30;1.40;;;;;;;34.43;35.18;99054.25;6097947;23;20147;-94
2022/06/27 11:36:39;;;;;;;5.75;1.38;;;;;;;34.58;35.46;99057.34;6072612;23;20168;-93
2022/06/27 11:39:05;;;;;;;2.45;1.45;;;;;;;34.54;34.60;99060.72;6072969;23;20215;-94
2022/06/27 11:41:36;;;;;;;1.85;0.90;;;;;;;34.49;35.20;99057.88;6072876;23;20156;-94
2022/06/27 11:44:04;;;;;;;2.78;1.38;;;;;;;34.20;35.77;99056.91;6072817;23;20212;-94
2022/06/27 11:46:41;;;;;;;2.10;1.10;;;;;;;33.88;36.77;99064.50;6073224;23;20171;-94
2022/06/27 11:49:16;;;;;;;3.67;1.10;;;;;;;33.81;36.25;99054.78;6073314;23;20179;-94